createdAt,value
2023-05-16T00:01:39.680Z,100.00
2023-05-16T00:06:43.846Z,100.00
2023-05-16T00:11:48.314Z,100.00
2023-05-16T00:16:51.934Z,100.00
2023-05-16T00:21:56.104Z,100.00
2023-05-16T00:26:58.828Z,100.00
2023-05-16T00:32:02.038Z,100.00
2023-05-16T00:37:06.906Z,100.00
2023-05-16T00:42:09.599Z,100.00
2023-05-16T00:47:14.239Z,100.00
2023-05-16T00:52:19.009Z,100.00
2023-05-16T00:57:22.219Z,100.00
2023-05-16T01:02:28.436Z,100.00
2023-05-16T01:07:32.668Z,100.00
2023-05-16T01:12:42.815Z,100.00
2023-05-16T01:17:54.580Z,100.00
2023-05-16T01:23:13.685Z,100.00
2023-05-16T01:28:18.093Z,100.00
2023-05-16T01:33:20.877Z,100.00
2023-05-16T01:38:27.326Z,100.00
2023-05-16T01:43:35.456Z,100.00
2023-05-16T01:48:45.946Z,100.00
2023-05-16T01:53:51.413Z,100.00
2023-05-16T01:58:57.045Z,100.00
2023-05-16T02:04:00.502Z,100.00
2023-05-16T02:09:03.317Z,100.00
2023-05-16T02:14:07.459Z,100.00
2023-05-16T02:19:10.959Z,100.00
2023-05-16T02:24:14.803Z,100.00
2023-05-16T02:29:19.667Z,100.00
2023-05-16T02:34:22.543Z,100.00
2023-05-16T02:39:25.287Z,100.00
2023-05-16T02:44:29.375Z,100.00
2023-05-16T02:49:34.597Z,100.00
2023-05-16T02:54:37.275Z,100.00
2023-05-16T02:59:42.034Z,100.00
2023-05-16T03:04:44.814Z,100.00
2023-05-16T03:09:47.521Z,100.00
2023-05-16T03:14:51.811Z,100.00
2023-05-16T03:19:55.072Z,100.00
2023-05-16T03:24:57.757Z,100.00
2023-05-16T03:30:03.018Z,100.00
2023-05-16T03:35:06.391Z,100.00
2023-05-16T03:40:11.209Z,100.00
2023-05-16T03:45:15.353Z,100.00
2023-05-16T03:50:18.299Z,100.00
2023-05-16T03:55:21.301Z,100.00
2023-05-16T04:00:28.097Z,100.00
2023-05-16T04:05:33.083Z,100.00
2023-05-16T04:10:36.766Z,100.00
2023-05-16T04:15:42.145Z,100.00
2023-05-16T04:20:47.523Z,100.00
2023-05-16T04:25:50.656Z,100.00
2023-05-16T04:30:54.828Z,100.00
2023-05-16T04:35:58.639Z,100.00
2023-05-16T04:41:01.910Z,100.00
2023-05-16T04:46:07.836Z,100.00
2023-05-16T04:51:10.677Z,100.00
2023-05-16T04:56:13.661Z,100.00
2023-05-16T05:01:17.826Z,100.00
2023-05-16T05:06:21.122Z,100.00
2023-05-16T05:11:23.896Z,100.00
2023-05-16T05:16:29.113Z,100.00
2023-05-16T05:21:33.216Z,100.00
2023-05-16T05:26:37.636Z,100.00
2023-05-16T05:31:42.147Z,100.00
2023-05-16T05:36:46.135Z,100.00
2023-05-16T05:41:48.895Z,100.00
2023-05-16T05:46:55.074Z,100.00
2023-05-16T05:51:58.131Z,100.00
2023-05-16T05:57:01.050Z,100.00
2023-05-16T06:02:10.170Z,100.00
2023-05-16T06:07:16.812Z,100.00
2023-05-16T06:12:19.585Z,100.00
2023-05-16T06:17:24.377Z,100.00
2023-05-16T06:22:27.220Z,100.00
2023-05-16T06:27:30.243Z,100.00
2023-05-16T06:32:34.345Z,100.00
2023-05-16T06:37:37.904Z,100.00
2023-05-16T06:42:43.013Z,100.00
2023-05-16T06:47:49.326Z,100.00
2023-05-16T06:52:52.281Z,100.00
2023-05-16T06:57:57.893Z,100.00
2023-05-16T07:03:03.366Z,100.00
2023-05-16T07:08:08.108Z,100.00
2023-05-16T07:13:11.057Z,100.00
2023-05-16T07:18:16.964Z,100.00
2023-05-16T07:23:19.912Z,100.00
2023-05-16T07:28:23.675Z,100.00
2023-05-16T07:33:28.561Z,100.00
2023-05-16T07:38:31.461Z,100.00
2023-05-16T07:43:35.343Z,100.00
2023-05-16T07:48:39.518Z,100.00
2023-05-16T07:53:43.355Z,100.00
2023-05-16T07:58:48.954Z,100.00
2023-05-16T08:03:54.337Z,100.00
2023-05-16T08:08:57.229Z,100.00
2023-05-16T08:14:00.301Z,100.00
2023-05-16T08:19:04.543Z,100.00
2023-05-16T08:24:08.051Z,100.00
2023-05-16T08:29:13.936Z,100.00
2023-05-16T08:34:18.368Z,100.00
2023-05-16T08:39:22.322Z,100.00
2023-05-16T08:44:27.003Z,100.00
2023-05-16T08:49:33.452Z,100.00
2023-05-16T08:54:37.274Z,100.00
2023-05-16T08:59:41.906Z,99.15
2023-05-16T09:04:49.395Z,94.61
2023-05-16T09:09:52.232Z,93.06
2023-05-16T09:14:56.399Z,86.01
2023-05-16T09:20:09.794Z,86.13
2023-05-16T09:25:28.476Z,87.24
2023-05-16T09:30:37.432Z,78.96
2023-05-16T09:35:45.482Z,76.22
2023-05-16T09:40:51.823Z,72.69
2023-05-16T09:45:55.514Z,74.54
2023-05-16T09:51:04.116Z,70.88
2023-05-16T09:56:08.664Z,68.13
2023-05-16T10:01:12.785Z,64.99
2023-05-16T10:06:20.461Z,62.55
2023-05-16T10:11:28.112Z,60.49
2023-05-16T10:16:31.724Z,60.72
2023-05-16T10:21:38.643Z,57.08
2023-05-16T10:26:41.474Z,58.48
2023-05-16T10:31:47.048Z,57.07
2023-05-16T10:36:54.019Z,56.26
2023-05-16T10:41:57.436Z,56.46
2023-05-16T10:47:00.859Z,57.57
2023-05-16T10:52:09.815Z,54.60
2023-05-16T10:57:17.455Z,53.80
2023-05-16T11:02:27.517Z,54.30
2023-05-16T11:07:34.543Z,52.83
2023-05-16T11:12:45.039Z,52.14
2023-05-16T11:17:48.350Z,51.78
2023-05-16T11:22:53.452Z,51.40
2023-05-16T11:27:57.398Z,52.03
2023-05-16T11:33:01.539Z,51.33
2023-05-16T11:38:05.923Z,47.81
2023-05-16T11:43:08.820Z,49.91
2023-05-16T11:48:16.586Z,46.79
2023-05-16T11:53:26.520Z,47.26
2023-05-16T11:58:29.808Z,47.80
2023-05-16T12:03:35.812Z,48.72
2023-05-16T12:08:40.390Z,45.01
2023-05-16T12:13:43.311Z,46.28
2023-05-16T12:18:46.577Z,45.28
2023-05-16T12:23:54.836Z,47.16
2023-05-16T12:29:00.846Z,44.25
2023-05-16T12:34:05.957Z,43.54
2023-05-16T12:39:13.974Z,44.28
2023-05-16T12:44:20.468Z,43.09
2023-05-16T12:49:23.474Z,40.57
2023-05-16T12:54:28.563Z,41.26
2023-05-16T12:59:31.454Z,40.56
2023-05-16T13:04:37.072Z,42.76
2023-05-16T13:09:42.614Z,42.29
2023-05-16T13:14:46.625Z,43.83
2023-05-16T13:19:53.576Z,44.69
2023-05-16T13:24:59.576Z,45.19
2023-05-16T13:30:03.654Z,45.77
2023-05-16T13:35:08.265Z,43.00
2023-05-16T13:40:14.852Z,40.02
2023-05-16T13:45:18.605Z,38.35
2023-05-16T13:50:23.179Z,38.67
2023-05-16T13:55:29.401Z,38.07
2023-05-16T14:00:44.232Z,34.94
2023-05-16T14:05:55.988Z,36.05
2023-05-16T14:11:02.687Z,33.35
2023-05-16T14:16:06.262Z,36.38
2023-05-16T14:21:09.209Z,39.01
2023-05-16T14:26:13.682Z,38.31
2023-05-16T14:31:18.118Z,39.80
2023-05-16T14:36:21.456Z,38.05
2023-05-16T14:41:27.936Z,33.76
2023-05-16T14:46:31.442Z,32.38
2023-05-16T14:51:34.691Z,30.74
2023-05-16T14:56:39.659Z,31.04
2023-05-16T15:16:09.074Z,33.89
2023-05-16T15:21:15.587Z,37.80
2023-05-16T15:26:18.899Z,40.18
2023-05-16T15:31:22.564Z,41.60
2023-05-16T15:36:27.186Z,33.62
2023-05-16T15:41:56.326Z,29.83
2023-05-16T15:46:52.970Z,28.71
2023-05-16T15:51:59.812Z,32.30
2023-05-16T15:57:03.819Z,34.85
2023-05-16T16:02:07.971Z,33.05
2023-05-16T16:07:12.686Z,40.35
2023-05-16T16:12:17.490Z,42.50
2023-05-16T16:17:21.117Z,44.75
2023-05-16T16:22:28.108Z,46.26
2023-05-16T16:27:30.885Z,46.74
2023-05-16T16:32:33.737Z,47.55
2023-05-16T16:37:40.653Z,48.47
2023-05-16T16:42:45.734Z,48.12
2023-05-16T16:47:50.604Z,40.35
2023-05-16T16:52:54.901Z,32.91
2023-05-16T16:57:57.859Z,31.90
2023-05-16T17:03:00.927Z,31.04
2023-05-16T17:08:05.877Z,29.48
2023-05-16T17:13:10.522Z,29.41
2023-05-16T17:18:14.676Z,29.37
2023-05-16T17:23:18.933Z,28.50
2023-05-16T17:28:25.016Z,32.25
2023-05-16T17:33:28.520Z,36.78
2023-05-16T17:38:33.228Z,41.29
2023-05-16T17:43:37.876Z,44.18
2023-05-16T17:48:40.657Z,45.23
2023-05-16T17:53:45.346Z,46.02
2023-05-16T17:58:48.539Z,48.31
2023-05-16T18:03:51.702Z,49.62
2023-05-16T18:08:56.939Z,49.98
2023-05-16T18:13:59.784Z,51.93
2023-05-16T18:19:04.918Z,52.08
2023-05-16T18:24:11.460Z,51.60
2023-05-16T18:29:15.935Z,52.42
2023-05-16T18:34:20.762Z,53.76
2023-05-16T18:39:24.957Z,55.37
2023-05-16T18:44:27.766Z,57.07
2023-05-16T18:49:33.421Z,60.36
2023-05-16T18:54:40.865Z,64.07
2023-05-16T18:59:43.684Z,67.10
2023-05-16T19:04:47.230Z,68.29
2023-05-16T19:09:51.991Z,70.86
2023-05-16T19:14:54.949Z,73.19
2023-05-16T19:19:58.137Z,75.51
2023-05-16T19:25:03.032Z,77.95
2023-05-16T19:30:07.489Z,78.29
2023-05-16T19:35:11.128Z,81.07
2023-05-16T19:40:17.268Z,83.34
2023-05-16T19:45:20.974Z,84.08
2023-05-16T19:50:23.988Z,86.47
2023-05-16T19:55:30.508Z,87.01
2023-05-16T20:00:33.758Z,87.77
2023-05-16T20:05:37.127Z,89.46
2023-05-16T20:10:41.457Z,89.81
2023-05-16T20:15:44.369Z,90.35
2023-05-16T20:20:47.211Z,91.41
2023-05-16T20:25:51.359Z,91.80
2023-05-16T20:30:54.309Z,93.76
2023-05-16T20:35:58.973Z,93.98
2023-05-16T20:41:04.614Z,94.75
2023-05-16T20:46:07.894Z,95.75
2023-05-16T20:51:10.781Z,94.11
2023-05-16T20:56:14.884Z,96.15
2023-05-16T21:01:17.691Z,95.96
2023-05-16T21:06:20.548Z,96.09
2023-05-16T21:11:24.982Z,96.50
2023-05-16T21:16:30.756Z,95.75
2023-05-16T21:21:33.548Z,99.34
2023-05-16T21:26:37.804Z,95.07
2023-05-16T21:31:40.957Z,100.00
2023-05-16T21:36:43.829Z,100.00
2023-05-16T21:41:47.957Z,100.00
2023-05-16T21:46:50.999Z,100.00
2023-05-16T21:51:53.768Z,100.00
2023-05-16T21:56:57.842Z,100.00
2023-05-16T22:02:00.741Z,100.00
2023-05-16T22:07:04.333Z,100.00
2023-05-16T22:12:09.295Z,100.00
2023-05-16T22:17:12.086Z,100.00
2023-05-16T22:22:14.976Z,100.00
2023-05-16T22:27:19.063Z,100.00
2023-05-16T22:32:22.249Z,100.00
2023-05-16T22:37:25.066Z,100.00
2023-05-16T22:42:30.383Z,100.00
2023-05-16T22:47:33.113Z,100.00
2023-05-16T22:52:40.988Z,100.00
2023-05-16T22:57:45.528Z,100.00
2023-05-16T23:02:48.401Z,100.00
2023-05-16T23:07:51.228Z,100.00
2023-05-16T23:12:55.415Z,100.00
2023-05-16T23:17:58.324Z,100.00
2023-05-16T23:23:01.650Z,100.00
2023-05-16T23:28:05.927Z,100.00
2023-05-16T23:33:08.837Z,100.00
2023-05-16T23:38:11.754Z,100.00
2023-05-16T23:43:16.407Z,100.00
2023-05-16T23:48:19.182Z,100.00
2023-05-16T23:53:27.910Z,100.00
2023-05-16T23:58:32.036Z,100.00
